Time;durP1;ratioP1;P1;durP2;ratioP2;P2;SDS_P1;SDS_P2;PMS_P1;PMS_P2;Temp;Humidity;BMP_temperature;BMP_pressure;BME280_temperature;BME280_humidity;BME280_pressure;Samples;Min_cycle;Max_cycle;Signal;HPM_P1;HPM_P2
2021/10/06 00:00:43;;;;;;;4.03;2.13;;;14.00;99.90;;;;;;5022317;28;20188;-69
2021/10/06 00:03:08;;;;;;;3.40;1.97;;;14.00;99.90;;;;;;5009729;28;20790;-69
2021/10/06 00:05:34;;;;;;;9.90;1.73;;;14.00;99.90;;;;;;5022057;28;20188;-69
2021/10/06 00:08:00;;;;;;;3.50;1.90;;;13.90;99.90;;;;;;5023804;28;20224;-69
2021/10/06 00:10:25;;;;;;;2.07;1.30;;;13.90;99.90;;;;;;5022207;28;20588;-69
2021/10/06 00:12:51;;;;;;;1.97;1.40;;;13.80;99.90;;;;;;5021904;28;20227;-69
2021/10/06 00:15:17;;;;;;;2.80;1.40;;;13.80;99.90;;;;;;5021334;28;20204;-68
2021/10/06 00:17:43;;;;;;;3.00;1.50;;;13.80;99.90;;;;;;5023501;28;20672;-69
2021/10/06 00:20:11;;;;;;;2.10;1.50;;;13.80;99.90;;;;;;5006636;28;20438;-69
2021/10/06 00:22:37;;;;;;;3.30;1.73;;;13.70;99.90;;;;;;5022475;28;20435;-69
2021/10/06 00:25:03;;;;;;;2.20;1.50;;;13.70;99.90;;;;;;5019203;28;24033;-69
2021/10/06 00:27:30;;;;;;;3.27;1.57;;;13.70;99.90;;;;;;5022199;28;20273;-69
2021/10/06 00:29:56;;;;;;;2.70;1.70;;;13.70;99.90;;;;;;5019469;28;20427;-69
2021/10/06 00:32:21;;;;;;;3.17;1.80;;;13.70;99.90;;;;;;5024672;28;20809;-69
2021/10/06 00:34:47;;;;;;;3.33;1.60;;;13.70;99.90;;;;;;5026184;28;20255;-68
2021/10/06 00:37:13;;;;;;;4.83;1.80;;;13.70;99.90;;;;;;5022125;28;20537;-69
2021/10/06 00:39:39;;;;;;;2.13;1.60;;;13.70;99.90;;;;;;5021561;28;20427;-69
2021/10/06 00:42:04;;;;;;;2.90;1.80;;;13.70;99.90;;;;;;5024497;28;20427;-69
2021/10/06 00:44:37;;;;;;;2.50;1.60;;;13.80;99.90;;;;;;5021863;28;20192;-69
2021/10/06 00:47:04;;;;;;;1.87;1.40;;;13.80;99.90;;;;;;5023299;28;20184;-69
2021/10/06 00:49:30;;;;;;;2.23;1.50;;;13.80;99.90;;;;;;5005117;28;20415;-69
2021/10/06 00:51:56;;;;;;;2.87;1.87;;;13.80;99.90;;;;;;5020910;28;20446;-69
2021/10/06 00:54:22;;;;;;;3.70;1.67;;;13.80;99.90;;;;;;5021098;28;20491;-69
2021/10/06 00:56:48;;;;;;;2.50;1.70;;;13.80;99.90;;;;;;5021310;28;20982;-69
2021/10/06 00:59:14;;;;;;;3.93;1.93;;;13.70;99.90;;;;;;5021912;28;20219;-70
2021/10/06 01:01:40;;;;;;;2.97;1.50;;;13.70;99.90;;;;;;5023434;28;20188;-68
2021/10/06 01:04:05;;;;;;;5.63;1.80;;;13.80;99.90;;;;;;5021294;28;20510;-70
2021/10/06 01:06:31;;;;;;;6.13;1.83;;;13.70;99.90;;;;;;5003429;28;20197;-69
2021/10/06 01:08:59;;;;;;;4.10;2.40;;;13.80;99.90;;;;;;5026746;28;20462;-69
2021/10/06 01:11:25;;;;;;;6.90;2.00;;;13.70;99.90;;;;;;5025000;28;20518;-69
2021/10/06 01:13:51;;;;;;;2.03;1.50;;;13.80;99.90;;;;;;5023252;28;20492;-70
2021/10/06 01:16:18;;;;;;;2.80;1.53;;;13.80;99.90;;;;;;5024525;28;20565;-69
2021/10/06 01:18:44;;;;;;;3.43;1.67;;;13.80;99.90;;;;;;5025147;28;20208;-69
2021/10/06 01:21:19;;;;;;;4.50;1.50;;;13.80;99.90;;;;;;5034110;28;20415;-69
2021/10/06 01:23:47;;;;;;;4.70;1.50;;;13.80;99.90;;;;;;5044743;28;20193;-69
2021/10/06 01:26:18;;;;;;;2.07;1.67;;;13.80;99.90;;;;;;5025150;28;20458;-69
2021/10/06 01:28:54;;;;;;;2.93;1.60;;;13.80;99.90;;;;;;5027991;28;20505;-69
2021/10/06 01:31:26;;;;;;;4.57;2.50;;;13.80;99.90;;;;;;5025070;28;20408;-69
2021/10/06 01:33:51;;;;;;;4.03;1.80;;;13.80;99.90;;;;;;5024478;28;20445;-69
2021/10/06 01:36:17;;;;;;;2.00;1.60;;;13.70;99.90;;;;;;5024850;28;20549;-69
2021/10/06 01:38:43;;;;;;;5.83;1.80;;;13.80;99.90;;;;;;5024863;28;20205;-69
2021/10/06 01:41:08;;;;;;;2.43;1.50;;;13.80;99.90;;;;;;5025638;28;21088;-69
2021/10/06 01:43:34;;;;;;;3.13;1.53;;;13.70;99.90;;;;;;5027050;28;20184;-70
2021/10/06 01:46:00;;;;;;;3.17;1.70;;;13.70;99.90;;;;;;5025429;28;20197;-69
2021/10/06 01:48:25;;;;;;;2.30;1.50;;;13.70;99.90;;;;;;5023994;28;20241;-69
2021/10/06 01:50:51;;;;;;;4.90;1.60;;;13.70;99.90;;;;;;5025464;28;20903;-69
2021/10/06 01:53:17;;;;;;;4.13;1.97;;;13.70;99.90;;;;;;5026330;28;20188;-69
2021/10/06 01:55:43;;;;;;;2.00;1.53;;;13.70;99.90;;;;;;5023685;28;20216;-68
2021/10/06 01:58:14;;;;;;;3.03;1.90;;;13.60;99.90;;;;;;5025217;28;20212;-69
2021/10/06 02:00:42;;;;;;;2.93;1.70;;;13.80;99.90;;;;;;5024519;28;20450;-68
2021/10/06 02:03:08;;;;;;;5.10;2.17;;;13.70;99.90;;;;;;5025161;28;20439;-69
2021/10/06 02:05:34;;;;;;;2.10;1.30;;;13.80;99.90;;;;;;5023241;28;20813;-69
2021/10/06 02:08:09;;;;;;;4.63;1.80;;;13.80;99.90;;;;;;5022637;28;20225;-69
2021/10/06 02:10:38;;;;;;;3.10;1.77;;;13.80;99.90;;;;;;5025598;28;20203;-69
2021/10/06 02:13:04;;;;;;;3.30;1.80;;;13.70;99.90;;;;;;5023131;28;20809;-69
2021/10/06 02:15:29;;;;;;;5.70;2.00;;;13.70;99.90;;;;;;5011320;28;20470;-69
2021/10/06 02:17:55;;;;;;;3.20;1.50;;;13.70;99.90;;;;;;5025356;28;20224;-69
2021/10/06 02:20:22;;;;;;;3.90;1.40;;;13.70;99.90;;;;;;5024573;28;20193;-69
2021/10/06 02:22:48;;;;;;;8.50;1.60;;;13.70;99.90;;;;;;5023912;28;20196;-69
2021/10/06 02:25:14;;;;;;;5.57;1.70;;;13.70;99.90;;;;;;5023969;28;20423;-70
2021/10/06 02:27:39;;;;;;;3.03;1.63;;;13.70;99.90;;;;;;5021846;28;20224;-70
2021/10/06 02:30:07;;;;;;;2.30;1.70;;;13.60;99.90;;;;;;5006471;28;20190;-69
2021/10/06 02:32:33;;;;;;;2.63;1.87;;;13.60;99.90;;;;;;5025846;28;20211;-70
2021/10/06 02:34:59;;;;;;;3.63;1.30;;;13.60;99.90;;;;;;5022661;28;20478;-69
2021/10/06 02:37:24;;;;;;;2.53;1.30;;;13.60;99.90;;;;;;5023850;28;20768;-70
2021/10/06 02:39:50;;;;;;;4.40;1.73;;;13.50;99.90;;;;;;5027317;28;20938;-69
2021/10/06 02:42:16;;;;;;;2.60;1.63;;;13.50;99.90;;;;;;5023265;28;20579;-69
2021/10/06 02:44:42;;;;;;;1.80;1.57;;;13.50;99.90;;;;;;5025771;28;20192;-69
2021/10/06 02:47:08;;;;;;;2.47;1.60;;;13.50;99.90;;;;;;5020058;28;20192;-69
2021/10/06 02:49:34;;;;;;;2.90;1.80;;;13.50;99.90;;;;;;5025478;28;20795;-69
2021/10/06 02:52:00;;;;;;;1.90;1.37;;;13.40;99.90;;;;;;5023437;28;20427;-70
2021/10/06 02:54:25;;;;;;;4.70;1.87;;;13.50;99.90;;;;;;5022083;28;20224;-69
2021/10/06 02:56:51;;;;;;;3.23;1.50;;;13.50;99.90;;;;;;5025165;28;20196;-69
2021/10/06 02:59:16;;;;;;;5.17;1.43;;;13.50;99.90;;;;;;5025490;28;20263;-70
2021/10/06 03:01:42;;;;;;;3.50;2.10;;;13.50;99.90;;;;;;5021694;28;20687;-70
2021/10/06 03:04:08;;;;;;;3.57;2.00;;;13.60;99.90;;;;;;5026347;28;20710;-69
2021/10/06 03:06:33;;;;;;;3.43;1.97;;;13.50;99.90;;;;;;5025442;28;20649;-70
2021/10/06 03:08:59;;;;;;;2.70;1.50;;;13.50;99.90;;;;;;5023478;28;20221;-70
2021/10/06 03:11:25;;;;;;;1.77;1.47;;;13.60;99.90;;;;;;5022447;28;20205;-69
2021/10/06 03:13:50;;;;;;;6.70;2.30;;;13.50;99.90;;;;;;5022222;28;20280;-69
2021/10/06 03:16:16;;;;;;;8.53;1.97;;;13.50;99.90;;;;;;5023212;28;20208;-70
2021/10/06 03:18:42;;;;;;;2.33;1.60;;;13.60;99.90;;;;;;5023834;28;20208;-69
2021/10/06 03:21:07;;;;;;;3.07;1.50;;;13.70;99.90;;;;;;5024816;28;20193;-69
2021/10/06 03:23:33;;;;;;;6.00;2.00;;;13.70;99.90;;;;;;5026996;28;20568;-69
2021/10/06 03:25:58;;;;;;;5.13;2.67;;;13.70;99.90;;;;;;5019909;28;20258;-70
2021/10/06 03:28:24;;;;;;;2.27;1.47;;;13.70;99.90;;;;;;5023652;28;20639;-68
2021/10/06 03:30:50;;;;;;;3.10;1.60;;;13.50;99.90;;;;;;5024780;28;20196;-68
2021/10/06 03:33:15;;;;;;;3.20;1.83;;;13.40;99.90;;;;;;5020415;28;20203;-68
2021/10/06 03:35:41;;;;;;;2.27;1.47;;;13.40;99.90;;;;;;5024689;28;20277;-67
2021/10/06 03:38:07;;;;;;;2.57;1.50;;;13.40;99.90;;;;;;5023934;28;20224;-67
2021/10/06 03:40:32;;;;;;;3.70;1.77;;;13.30;99.90;;;;;;5023472;28;20430;-68
2021/10/06 03:42:58;;;;;;;3.17;1.53;;;13.30;99.90;;;;;;5022536;28;20238;-68
2021/10/06 03:45:24;;;;;;;3.23;1.60;;;13.30;99.90;;;;;;5002719;28;20417;-67
2021/10/06 03:47:49;;;;;;;2.30;2.10;;;13.20;99.90;;;;;;5022155;28;20236;-68
2021/10/06 03:50:18;;;;;;;3.57;1.90;;;13.20;99.90;;;;;;5028220;28;20193;-69
2021/10/06 03:52:44;;;;;;;3.77;1.83;;;13.20;99.90;;;;;;5022876;28;20247;-69
2021/10/06 03:55:10;;;;;;;4.07;1.70;;;13.20;99.90;;;;;;5022770;28;20485;-69
2021/10/06 03:57:36;;;;;;;3.90;1.80;;;13.20;99.90;;;;;;5025391;28;20582;-68
2021/10/06 04:00:03;;;;;;;3.07;1.80;;;13.20;99.90;;;;;;5025206;28;21390;-69
2021/10/06 04:02:30;;;;;;;2.60;1.73;;;13.20;99.90;;;;;;5023815;28;20197;-68
2021/10/06 04:04:56;;;;;;;3.13;2.00;;;13.20;99.90;;;;;;5026900;28;21013;-69
2021/10/06 04:07:21;;;;;;;2.50;1.77;;;13.20;99.90;;;;;;5024247;28;20531;-69
2021/10/06 04:09:47;;;;;;;2.50;1.97;;;13.30;99.90;;;;;;5019876;28;20578;-69
2021/10/06 04:12:12;;;;;;;3.83;1.90;;;13.20;99.90;;;;;;5021497;28;20192;-69
2021/10/06 04:14:38;;;;;;;3.50;1.83;;;13.20;99.90;;;;;;5026173;28;20852;-68
2021/10/06 04:17:04;;;;;;;4.23;1.80;;;13.20;99.90;;;;;;5029107;28;20260;-69
2021/10/06 04:19:29;;;;;;;2.97;1.90;;;13.10;99.90;;;;;;5027782;28;20208;-68
2021/10/06 04:21:55;;;;;;;4.23;1.90;;;13.10;99.90;;;;;;5018991;28;20688;-69
2021/10/06 04:24:20;;;;;;;2.53;1.90;;;13.10;99.90;;;;;;5023960;28;20215;-68
2021/10/06 04:26:46;;;;;;;3.50;1.77;;;13.10;99.90;;;;;;5023307;28;20708;-69
2021/10/06 04:29:12;;;;;;;2.10;1.70;;;13.10;99.90;;;;;;5022331;28;20215;-68
2021/10/06 04:31:38;;;;;;;4.53;1.90;;;13.10;99.90;;;;;;5023007;28;20215;-68
2021/10/06 04:34:03;;;;;;;6.83;2.00;;;13.10;99.90;;;;;;5023255;28;20197;-69
2021/10/06 04:36:29;;;;;;;3.63;1.83;;;13.10;99.90;;;;;;5004977;28;20212;-67
2021/10/06 04:38:55;;;;;;;5.13;1.90;;;13.00;99.90;;;;;;5021911;28;20756;-68
2021/10/06 04:41:20;;;;;;;2.50;1.93;;;13.00;99.90;;;;;;5021229;28;20215;-69
2021/10/06 04:43:46;;;;;;;2.73;1.97;;;13.10;99.90;;;;;;5027444;28;21032;-67
2021/10/06 04:46:12;;;;;;;3.80;2.07;;;13.10;99.90;;;;;;5030573;28;20225;-69
2021/10/06 04:48:37;;;;;;;3.60;2.10;;;13.10;99.90;;;;;;5026136;28;20678;-69
2021/10/06 04:51:03;;;;;;;3.13;1.77;;;13.20;99.90;;;;;;5026293;28;20671;-69
2021/10/06 04:53:29;;;;;;;3.93;2.03;;;13.20;99.90;;;;;;5026694;28;20228;-69
2021/10/06 04:55:54;;;;;;;3.83;1.93;;;13.10;99.90;;;;;;5025324;28;20213;-68
2021/10/06 04:58:20;;;;;;;2.50;1.70;;;13.10;99.90;;;;;;5026236;28;20271;-69
2021/10/06 05:00:45;;;;;;;3.80;1.90;;;13.10;99.90;;;;;;5026532;28;20204;-69
2021/10/06 05:03:13;;;;;;;4.03;1.50;;;13.10;99.90;;;;;;5025222;28;20223;-69
2021/10/06 05:05:40;;;;;;;5.30;1.77;;;13.10;99.90;;;;;;5026738;28;20211;-69
2021/10/06 05:08:07;;;;;;;2.17;1.93;;;13.10;99.90;;;;;;5023931;28;20876;-69
2021/10/06 05:10:33;;;;;;;2.30;2.07;;;13.10;99.90;;;;;;5025785;28;20454;-68
2021/10/06 05:12:59;;;;;;;1.80;1.60;;;13.00;99.90;;;;;;5032576;28;20466;-68
2021/10/06 05:15:25;;;;;;;3.00;1.80;;;13.10;99.90;;;;;;5027413;28;20513;-67
2021/10/06 05:17:50;;;;;;;2.87;1.80;;;13.00;99.90;;;;;;5023342;28;20725;-68
2021/10/06 05:20:16;;;;;;;5.67;2.23;;;12.90;99.90;;;;;;5027951;28;20423;-69
2021/10/06 05:22:42;;;;;;;2.97;2.30;;;12.90;99.90;;;;;;5025192;28;20186;-69
2021/10/06 05:25:08;;;;;;;2.13;1.50;;;12.90;99.90;;;;;;5027182;28;20200;-69
2021/10/06 05:27:33;;;;;;;2.60;2.00;;;12.90;99.90;;;;;;5024486;28;20212;-69
2021/10/06 05:30:04;;;;;;;3.77;1.53;;;12.90;99.90;;;;;;5028667;28;20912;-69
2021/10/06 05:32:30;;;;;;;4.80;1.60;;;12.90;99.90;;;;;;5025714;28;20172;-70
2021/10/06 05:34:55;;;;;;;3.30;1.70;;;12.80;99.90;;;;;;5019703;28;20858;-69
2021/10/06 05:37:21;;;;;;;3.20;1.90;;;12.80;99.90;;;;;;5028482;28;20214;-69
2021/10/06 05:39:46;;;;;;;3.00;2.20;;;12.80;99.90;;;;;;5024865;28;20185;-69
2021/10/06 05:42:12;;;;;;;2.40;1.53;;;12.80;99.90;;;;;;5023257;28;20683;-67
2021/10/06 05:44:38;;;;;;;2.50;1.80;;;12.80;99.90;;;;;;5025828;28;20265;-69
2021/10/06 05:47:04;;;;;;;2.27;1.80;;;12.70;99.90;;;;;;5026722;28;20188;-69
2021/10/06 05:49:29;;;;;;;4.10;1.57;;;12.80;99.90;;;;;;5023698;28;20224;-68
2021/10/06 05:51:55;;;;;;;5.57;1.90;;;12.80;99.90;;;;;;5026137;28;20570;-68
2021/10/06 05:54:21;;;;;;;1.83;1.50;;;12.80;99.90;;;;;;5025615;28;20204;-69
2021/10/06 05:56:46;;;;;;;5.70;2.30;;;12.80;99.90;;;;;;5027103;28;20236;-69
2021/10/06 05:59:12;;;;;;;3.20;1.60;;;12.80;99.90;;;;;;5027164;28;20468;-68
2021/10/06 06:01:38;;;;;;;1.63;1.50;;;12.80;99.90;;;;;;5028457;28;20666;-68
2021/10/06 06:04:03;;;;;;;2.83;2.43;;;12.80;99.90;;;;;;5022926;28;20247;-69
2021/10/06 06:06:29;;;;;;;8.13;1.80;;;12.80;99.90;;;;;;5021865;28;20656;-69
2021/10/06 06:08:55;;;;;;;3.90;2.00;;;12.80;99.90;;;;;;5025535;28;20321;-69
2021/10/06 06:11:23;;;;;;;3.53;1.67;;;12.80;99.90;;;;;;5024399;28;20271;-69
2021/10/06 06:13:49;;;;;;;5.23;1.73;;;12.80;99.90;;;;;;5025703;28;20443;-69
2021/10/06 06:16:15;;;;;;;3.40;1.83;;;12.80;99.90;;;;;;5023894;28;20482;-68
2021/10/06 06:18:41;;;;;;;3.53;2.10;;;12.80;99.90;;;;;;5025184;28;20451;-68
2021/10/06 06:21:07;;;;;;;3.73;2.00;;;12.80;99.90;;;;;;5024608;28;20486;-68
2021/10/06 06:23:33;;;;;;;4.27;2.30;;;12.80;99.90;;;;;;5025252;28;20189;-68
2021/10/06 06:25:59;;;;;;;2.97;1.80;;;12.80;99.90;;;;;;5026066;28;20491;-68
2021/10/06 06:28:25;;;;;;;2.40;1.63;;;12.80;99.90;;;;;;5023480;28;20267;-69
2021/10/06 06:30:51;;;;;;;2.53;1.60;;;12.80;99.90;;;;;;5024423;28;20885;-68
2021/10/06 06:33:16;;;;;;;4.40;1.93;;;12.90;99.90;;;;;;5024129;28;20526;-68
2021/10/06 06:35:42;;;;;;;5.23;1.70;;;12.90;99.90;;;;;;5022865;28;20240;-68
2021/10/06 06:38:08;;;;;;;6.00;2.50;;;12.80;99.90;;;;;;5008300;28;20219;-68
2021/10/06 06:40:33;;;;;;;4.40;1.40;;;12.80;99.90;;;;;;5026406;28;20188;-67
2021/10/06 06:42:59;;;;;;;3.30;1.80;;;12.80;99.90;;;;;;5024279;28;20878;-69
2021/10/06 06:45:25;;;;;;;3.87;1.87;;;12.80;99.90;;;;;;5024308;28;20188;-69
2021/10/06 06:47:50;;;;;;;4.10;1.83;;;12.90;99.90;;;;;;5023266;28;20243;-69
2021/10/06 06:50:18;;;;;;;4.83;2.20;;;12.90;99.90;;;;;;5022235;28;20224;-69
2021/10/06 06:52:44;;;;;;;3.27;2.10;;;12.90;99.90;;;;;;5027560;28;20245;-69
2021/10/06 06:55:10;;;;;;;2.57;1.90;;;12.90;99.90;;;;;;5022211;28;20510;-70
2021/10/06 06:57:35;;;;;;;7.00;1.80;;;12.90;99.90;;;;;;5021952;28;20466;-69
2021/10/06 07:00:03;;;;;;;5.53;2.00;;;12.80;99.90;;;;;;5023729;28;20672;-68
2021/10/06 07:02:29;;;;;;;3.67;1.73;;;12.80;99.90;;;;;;5021532;28;21025;-68
2021/10/06 07:04:55;;;;;;;3.17;1.60;;;12.70;99.90;;;;;;5021415;28;20446;-68
2021/10/06 07:07:20;;;;;;;8.60;2.33;;;12.70;99.90;;;;;;5029450;28;20188;-68
2021/10/06 07:09:49;;;;;;;5.73;2.40;;;12.70;99.90;;;;;;5005821;28;20195;-69
2021/10/06 07:12:20;;;;;;;3.70;1.63;;;12.70;99.90;;;;;;5023831;28;20199;-68
2021/10/06 07:14:50;;;;;;;4.30;2.10;;;12.70;99.90;;;;;;5023818;28;20542;-69
2021/10/06 07:17:16;;;;;;;6.27;1.93;;;12.80;99.90;;;;;;5022336;28;20436;-68
2021/10/06 07:19:41;;;;;;;3.50;1.93;;;12.80;99.90;;;;;;5021210;28;20431;-68
2021/10/06 07:22:09;;;;;;;6.83;2.10;;;12.90;99.90;;;;;;5006978;28;20436;-68
2021/10/06 07:24:35;;;;;;;2.90;1.73;;;12.90;99.90;;;;;;5023354;28;20668;-68
2021/10/06 07:27:01;;;;;;;3.27;1.67;;;12.90;99.90;;;;;;5021185;28;20443;-68
2021/10/06 07:29:27;;;;;;;6.73;2.10;;;12.90;99.90;;;;;;5021447;28;20219;-68
2021/10/06 07:31:52;;;;;;;6.73;2.43;;;12.90;99.90;;;;;;5022627;28;20678;-69
2021/10/06 07:34:18;;;;;;;2.87;2.40;;;12.90;99.90;;;;;;5024485;28;20431;-68
2021/10/06 07:36:44;;;;;;;6.20;2.20;;;12.80;99.90;;;;;;5022300;28;20185;-68
2021/10/06 07:39:10;;;;;;;4.30;1.77;;;12.80;99.90;;;;;;5024272;28;20712;-69
2021/10/06 07:41:36;;;;;;;2.87;1.73;;;12.70;99.90;;;;;;5025062;28;20181;-68
2021/10/06 07:44:01;;;;;;;3.80;1.70;;;12.70;99.90;;;;;;5021528;28;20196;-69
2021/10/06 07:46:27;;;;;;;4.80;1.80;;;12.70;99.90;;;;;;5023704;28;20587;-68
2021/10/06 07:48:53;;;;;;;4.70;4.23;;;12.70;99.90;;;;;;5026785;28;20874;-68
2021/10/06 07:51:19;;;;;;;6.70;1.80;;;12.70;99.90;;;;;;5005389;28;20222;-68
2021/10/06 07:53:46;;;;;;;3.93;1.77;;;12.80;99.90;;;;;;5024366;28;20497;-68
2021/10/06 07:56:12;;;;;;;3.83;1.70;;;12.80;99.90;;;;;;5022386;28;20552;-69
2021/10/06 07:58:38;;;;;;;8.33;1.90;;;12.80;99.90;;;;;;5021835;28;20523;-69
2021/10/06 08:01:03;;;;;;;3.40;2.10;;;12.80;99.90;;;;;;5024134;28;20749;-69
2021/10/06 08:03:29;;;;;;;4.73;2.27;;;12.80;99.90;;;;;;5022162;28;20435;-69
2021/10/06 08:05:55;;;;;;;3.93;1.90;;;12.80;99.90;;;;;;5021890;28;20438;-68
2021/10/06 08:08:26;;;;;;;7.37;2.00;;;12.80;99.90;;;;;;5023595;28;20258;-69
2021/10/06 08:10:55;;;;;;;3.73;1.93;;;12.80;99.90;;;;;;5020926;28;20687;-70
2021/10/06 08:13:22;;;;;;;3.93;1.70;;;12.80;99.90;;;;;;5022960;28;20463;-69
2021/10/06 08:15:49;;;;;;;4.10;1.97;;;12.90;99.90;;;;;;5021635;28;20462;-69
2021/10/06 08:18:16;;;;;;;7.23;2.30;;;12.90;99.90;;;;;;5022898;28;20439;-69
2021/10/06 08:20:43;;;;;;;6.90;1.83;;;12.90;99.90;;;;;;5024263;28;20923;-69
2021/10/06 08:23:09;;;;;;;6.77;2.63;;;12.80;99.90;;;;;;5023080;28;20454;-69
2021/10/06 08:25:35;;;;;;;3.33;1.90;;;12.80;99.90;;;;;;5007050;28;20431;-69
2021/10/06 08:28:01;;;;;;;5.10;1.93;;;12.80;99.90;;;;;;5021923;28;20212;-69
2021/10/06 08:30:27;;;;;;;2.97;1.83;;;12.90;99.90;;;;;;5026901;28;20275;-69
2021/10/06 08:32:53;;;;;;;7.10;1.80;;;13.10;99.90;;;;;;5021030;28;20196;-69
2021/10/06 08:35:19;;;;;;;4.20;1.73;;;13.10;99.90;;;;;;5023045;28;21206;-69
2021/10/06 08:37:45;;;;;;;4.90;1.80;;;13.20;99.90;;;;;;5021848;28;20699;-69
2021/10/06 08:40:11;;;;;;;7.23;1.80;;;13.00;99.90;;;;;;5019991;28;20184;-69
2021/10/06 08:42:39;;;;;;;3.37;1.63;;;13.10;99.90;;;;;;5022385;28;20833;-69
2021/10/06 08:45:07;;;;;;;4.20;1.70;;;13.10;99.90;;;;;;5021913;28;21013;-69
2021/10/06 08:47:36;;;;;;;6.50;2.37;;;13.20;99.90;;;;;;5021607;28;20459;-68
2021/10/06 08:50:02;;;;;;;4.83;1.70;;;13.20;99.90;;;;;;5022235;28;20984;-68
2021/10/06 08:52:28;;;;;;;5.50;1.80;;;13.20;99.90;;;;;;5024254;28;20431;-68
2021/10/06 08:54:53;;;;;;;2.20;1.70;;;13.10;99.90;;;;;;5018911;28;20470;-68
2021/10/06 08:57:20;;;;;;;2.83;1.93;;;13.20;99.90;;;;;;5022252;28;20189;-70
2021/10/06 08:59:46;;;;;;;5.40;1.80;;;13.20;99.90;;;;;;5022597;28;20184;-70
2021/10/06 09:02:13;;;;;;;10.50;1.70;;;13.30;99.90;;;;;;5022265;28;20509;-69
2021/10/06 09:04:40;;;;;;;8.63;1.93;;;13.40;99.90;;;;;;5034473;28;20207;-69
2021/10/06 09:07:06;;;;;;;3.70;1.80;;;13.50;99.90;;;;;;5023469;28;20420;-70
2021/10/06 09:09:33;;;;;;;3.17;2.10;;;13.50;99.90;;;;;;5023419;28;20449;-70
2021/10/06 09:11:59;;;;;;;4.13;1.70;;;13.50;99.90;;;;;;5024021;28;20847;-70
2021/10/06 09:14:28;;;;;;;2.73;1.77;;;13.50;99.90;;;;;;5023318;28;20430;-69
2021/10/06 09:17:20;;;;;;;4.73;1.87;;;13.60;99.90;;;;;;5021794;28;20419;-69
2021/10/06 09:19:49;;;;;;;4.97;1.90;;;13.60;99.90;;;;;;5023324;28;20517;-69
2021/10/06 09:22:17;;;;;;;9.10;2.80;;;13.60;99.90;;;;;;5023606;28;20426;-67
2021/10/06 09:24:57;;;;;;;5.57;2.13;;;13.70;99.90;;;;;;5018554;28;20523;-68
2021/10/06 09:27:32;;;;;;;4.67;2.10;;;13.70;99.90;;;;;;5025612;28;20503;-68
2021/10/06 09:30:03;;;;;;;2.90;1.63;;;13.80;99.90;;;;;;5024853;28;20473;-68
2021/10/06 09:32:41;;;;;;;3.30;1.90;;;13.70;99.90;;;;;;5027197;28;20430;-69
2021/10/06 09:35:17;;;;;;;5.17;2.87;;;13.60;99.90;;;;;;5027043;28;20903;-69
2021/10/06 09:37:48;;;;;;;9.50;2.00;;;13.50;99.90;;;;;;5025234;28;20438;-69
2021/10/06 09:40:16;;;;;;;5.93;2.60;;;13.60;99.90;;;;;;5024769;28;20467;-69
2021/10/06 09:42:46;;;;;;;6.60;2.00;;;13.60;99.90;;;;;;5027294;28;20428;-69
2021/10/06 09:45:24;;;;;;;3.73;1.70;;;13.80;99.90;;;;;;5025121;28;20480;-69
2021/10/06 09:48:01;;;;;;;3.83;1.93;;;14.00;99.90;;;;;;5022918;28;20508;-69
2021/10/06 09:50:28;;;;;;;3.27;1.70;;;14.20;99.90;;;;;;5025413;28;20423;-69
2021/10/06 09:52:54;;;;;;;8.20;1.87;;;14.30;99.90;;;;;;5024864;28;20454;-69
2021/10/06 09:55:20;;;;;;;3.73;1.70;;;14.50;99.90;;;;;;5027516;28;20462;-69
2021/10/06 09:57:46;;;;;;;5.63;2.27;;;14.60;99.90;;;;;;5024619;28;20437;-69
2021/10/06 10:00:17;;;;;;;4.23;1.90;;;14.70;99.90;;;;;;5024646;28;20843;-69
2021/10/06 10:02:46;;;;;;;2.27;1.90;;;14.70;99.90;;;;;;5024468;28;20613;-68
2021/10/06 10:05:13;;;;;;;2.60;1.60;;;14.70;99.90;;;;;;5026753;28;20422;-68
2021/10/06 10:07:40;;;;;;;5.33;2.00;;;14.50;99.90;;;;;;5026924;28;20969;-70
2021/10/06 10:10:08;;;;;;;3.03;1.63;;;14.50;99.90;;;;;;5027548;28;23442;-70
2021/10/06 10:12:34;;;;;;;3.63;1.67;;;14.50;99.90;;;;;;5024284;28;20439;-70
2021/10/06 10:15:02;;;;;;;4.60;1.90;;;14.50;99.90;;;;;;5021906;28;20993;-67
2021/10/06 10:17:28;;;;;;;2.17;1.50;;;14.60;99.90;;;;;;5024380;28;20530;-70
2021/10/06 10:19:57;;;;;;;2.53;1.73;;;14.60;99.90;;;;;;5026709;28;20454;-70
2021/10/06 10:22:28;;;;;;;9.43;2.20;;;14.50;99.90;;;;;;5025954;28;20433;-69
2021/10/06 10:24:54;;;;;;;5.40;1.90;;;14.50;99.90;;;;;;5025567;28;20509;-70
2021/10/06 10:27:21;;;;;;;4.50;1.80;;;14.60;99.90;;;;;;5023129;28;20459;-69
2021/10/06 10:29:56;;;;;;;2.10;1.90;;;14.50;99.90;;;;;;5007581;28;20443;-70
2021/10/06 10:32:26;;;;;;;4.17;1.90;;;14.50;99.90;;;;;;5024357;28;20462;-70
2021/10/06 10:35:09;;;;;;;3.33;1.97;;;14.50;99.90;;;;;;5024463;28;20466;-69
2021/10/06 10:37:51;;;;;;;5.80;1.93;;;14.50;99.90;;;;;;5025810;28;21024;-69
2021/10/06 10:40:34;;;;;;;4.67;1.70;;;14.50;99.90;;;;;;5022474;28;20441;-69
2021/10/06 10:43:09;;;;;;;4.77;2.00;;;14.50;99.90;;;;;;5008808;28;20496;-70
2021/10/06 10:45:53;;;;;;;5.30;2.40;;;14.50;99.90;;;;;;5008745;28;20414;-69
2021/10/06 10:48:38;;;;;;;4.53;2.00;;;14.50;99.90;;;;;;5021153;28;20568;-69
2021/10/06 10:51:06;;;;;;;3.83;1.90;;;14.60;99.90;;;;;;5026857;28;20483;-69
2021/10/06 10:53:50;;;;;;;3.07;1.60;;;14.70;99.90;;;;;;5024909;28;20420;-69
2021/10/06 10:56:43;;;;;;;3.67;1.87;;;14.80;99.90;;;;;;5027169;28;20831;-69
2021/10/06 10:59:23;;;;;;;6.27;1.93;;;15.00;99.90;;;;;;5007752;28;20463;-70
2021/10/06 11:01:52;;;;;;;4.37;1.70;;;15.00;99.90;;;;;;5022746;28;20520;-68
2021/10/06 11:04:35;;;;;;;3.20;1.93;;;15.00;99.90;;;;;;5027413;28;20435;-70
2021/10/06 11:07:18;;;;;;;3.73;1.57;;;15.10;99.90;;;;;;5022043;28;20601;-69
2021/10/06 11:09:55;;;;;;;3.63;2.40;;;15.10;99.90;;;;;;5023549;28;20426;-69
2021/10/06 11:12:20;;;;;;;12.20;2.90;;;15.00;99.90;;;;;;5023543;28;20425;-69
2021/10/06 11:15:21;;;;;;;4.23;2.00;;;15.00;99.90;;;;;;5022618;28;20826;-68
2021/10/06 11:18:06;;;;;;;3.07;2.10;;;15.00;99.90;;;;;;5023251;28;20203;-68
2021/10/06 11:21:05;;;;;;;2.33;1.60;;;15.00;99.90;;;;;;5022251;28;20440;-69
2021/10/06 11:23:30;;;;;;;3.87;2.10;;;14.90;99.90;;;;;;5022768;28;20938;-69
2021/10/06 11:26:02;;;;;;;5.83;1.90;;;15.00;99.90;;;;;;5024066;28;20430;-69
2021/10/06 11:28:29;;;;;;;6.03;1.87;;;15.00;99.90;;;;;;5024994;28;20204;-68
2021/10/06 11:30:56;;;;;;;3.30;1.80;;;14.90;99.90;;;;;;5024404;28;20950;-69
2021/10/06 11:33:29;;;;;;;2.97;2.20;;;14.80;99.90;;;;;;5027297;28;20423;-69
2021/10/06 11:36:11;;;;;;;8.40;2.53;;;14.80;99.90;;;;;;5023252;28;20469;-69
2021/10/06 11:38:38;;;;;;;2.67;2.33;;;14.80;99.90;;;;;;5022353;28;20463;-70
2021/10/06 11:41:04;;;;;;;4.30;1.80;;;15.00;99.90;;;;;;5025657;28;20411;-69
2021/10/06 11:43:42;;;;;;;4.17;2.20;;;15.30;99.90;;;;;;5023584;28;20415;-69
2021/10/06 11:46:12;;;;;;;4.40;2.07;;;15.60;99.90;;;;;;5024208;28;20449;-70
2021/10/06 11:48:38;;;;;;;4.80;2.17;;;15.70;99.90;;;;;;5027701;28;20522;-69
2021/10/06 11:51:04;;;;;;;3.80;1.63;;;15.60;99.90;;;;;;5019398;28;20528;-70
2021/10/06 11:53:44;;;;;;;3.60;1.90;;;15.60;99.90;;;;;;5023075;28;20638;-70
2021/10/06 11:56:09;;;;;;;2.97;1.90;;;15.80;99.90;;;;;;5024167;28;20346;-69
2021/10/06 11:58:37;;;;;;;5.60;1.97;;;15.80;99.90;;;;;;5021358;28;21028;-69
2021/10/06 12:01:10;;;;;;;2.10;1.60;;;15.70;99.90;;;;;;5021001;28;20203;-69
2021/10/06 12:03:40;;;;;;;2.23;1.70;;;15.90;99.90;;;;;;5022598;28;20774;-69
2021/10/06 12:06:11;;;;;;;6.27;2.10;;;16.00;99.90;;;;;;5022869;28;20447;-69
2021/10/06 12:08:38;;;;;;;5.83;1.97;;;15.90;99.90;;;;;;5024861;28;20457;-69
2021/10/06 12:11:05;;;;;;;4.13;2.23;;;15.80;99.90;;;;;;5023292;28;20923;-68
2021/10/06 12:13:39;;;;;;;3.80;1.83;;;15.60;99.90;;;;;;5021490;28;20985;-68
2021/10/06 12:16:28;;;;;;;2.60;1.67;;;15.40;99.90;;;;;;5006984;28;20520;-69
2021/10/06 12:18:54;;;;;;;6.53;1.93;;;15.10;99.90;;;;;;5025279;28;20473;-68
2021/10/06 12:21:20;;;;;;;4.73;2.00;;;14.90;99.90;;;;;;5024950;28;20452;-68
2021/10/06 12:23:46;;;;;;;3.57;2.07;;;14.80;99.90;;;;;;5021293;28;20422;-68
2021/10/06 12:26:12;;;;;;;4.30;1.97;;;14.90;99.90;;;;;;5003892;28;20642;-68
2021/10/06 12:28:51;;;;;;;5.47;2.00;;;14.80;99.90;;;;;;5023778;28;20906;-68
2021/10/06 12:31:26;;;;;;;3.97;1.73;;;15.10;99.90;;;;;;5001545;28;20479;-68
2021/10/06 12:34:12;;;;;;;3.00;1.90;;;15.90;99.90;;;;;;5025479;28;20809;-68
2021/10/06 12:36:53;;;;;;;3.20;1.90;;;16.50;99.90;;;;;;5021127;28;20502;-68
2021/10/06 12:39:25;;;;;;;3.83;1.60;;;17.10;99.90;;;;;;5020530;28;20519;-68
2021/10/06 12:41:52;;;;;;;3.07;2.03;;;17.10;99.90;;;;;;5026188;28;20835;-69
2021/10/06 12:44:24;;;;;;;3.20;1.77;;;17.70;99.90;;;;;;5028411;28;21138;-68
2021/10/06 12:46:50;;;;;;;2.67;1.87;;;18.50;99.90;;;;;;5021769;28;20797;-67
2021/10/06 12:49:17;;;;;;;5.17;1.83;;;19.10;99.90;;;;;;5019547;28;20450;-68
2021/10/06 12:51:50;;;;;;;2.20;1.73;;;18.80;99.90;;;;;;5022734;28;20565;-68